createdAt,value
2023-02-03T00:00:20.884Z,29.83
2023-02-03T00:02:52.021Z,29.62
2023-02-03T00:05:21.297Z,29.97
2023-02-03T00:07:48.599Z,30.05
2023-02-03T00:10:22.217Z,30.22
2023-02-03T00:12:52.435Z,29.89
2023-02-03T00:15:32.700Z,29.85
2023-02-03T00:17:59.969Z,30.23
2023-02-03T00:20:30.168Z,30.08
2023-02-03T00:23:05.331Z,30.13
2023-02-03T00:25:32.628Z,30.06
2023-02-03T00:28:00.161Z,29.92
2023-02-03T00:30:32.318Z,29.46
2023-02-03T00:33:05.303Z,28.93
2023-02-03T00:35:35.621Z,29.37
2023-02-03T00:38:06.068Z,29.52
2023-02-03T00:40:35.949Z,30.10
2023-02-03T00:43:03.930Z,30.16
2023-02-03T00:45:33.113Z,30.13
2023-02-03T00:48:01.158Z,30.19
2023-02-03T00:50:30.972Z,29.95
2023-02-03T00:53:09.160Z,30.29
2023-02-03T00:55:39.975Z,30.20
2023-02-03T00:58:10.161Z,30.07
2023-02-03T01:00:43.344Z,30.09
2023-02-03T01:03:13.190Z,29.74
2023-02-03T01:05:41.215Z,29.72
2023-02-03T01:08:08.444Z,30.08
2023-02-03T01:10:38.968Z,30.01
2023-02-03T01:13:06.167Z,30.20
2023-02-03T01:15:34.969Z,29.60
2023-02-03T01:18:02.235Z,30.29
2023-02-03T01:20:29.940Z,30.13
2023-02-03T01:23:00.859Z,30.07
2023-02-03T01:25:28.159Z,29.99
2023-02-03T01:27:59.607Z,29.71
2023-02-03T01:30:30.025Z,29.91
2023-02-03T01:32:57.611Z,30.01
2023-02-03T01:35:30.403Z,30.28
2023-02-03T01:38:09.454Z,29.46
2023-02-03T01:40:45.467Z,29.46
2023-02-03T01:43:28.793Z,29.42
2023-02-03T01:45:56.175Z,29.47
2023-02-03T01:48:26.112Z,30.06
2023-02-03T01:50:53.532Z,29.95
2023-02-03T01:53:23.565Z,29.90
2023-02-03T01:55:51.215Z,29.98
2023-02-03T01:58:25.818Z,30.27
2023-02-03T02:00:54.340Z,29.78
2023-02-03T02:03:25.490Z,29.95
2023-02-03T02:06:11.061Z,29.74
2023-02-03T02:08:42.405Z,29.93
2023-02-03T02:11:10.174Z,29.98
2023-02-03T02:13:40.921Z,30.02
2023-02-03T02:16:17.550Z,30.00
2023-02-03T02:19:07.670Z,30.01
2023-02-03T02:21:41.596Z,29.97
2023-02-03T02:24:08.775Z,30.13
2023-02-03T02:26:55.489Z,30.05
2023-02-03T02:29:23.800Z,29.95
2023-02-03T02:32:20.857Z,30.18
2023-02-03T02:34:48.938Z,29.89
2023-02-03T02:37:34.902Z,29.96
2023-02-03T02:40:25.389Z,30.07
2023-02-03T02:42:59.825Z,29.93
2023-02-03T02:45:32.259Z,29.86
2023-02-03T02:48:05.449Z,29.99
2023-02-03T02:50:41.363Z,30.19
2023-02-03T02:53:10.473Z,29.86
2023-02-03T02:55:45.111Z,29.95
2023-02-03T02:58:15.932Z,30.08
2023-02-03T03:00:53.101Z,29.95
2023-02-03T03:03:22.043Z,29.99
2023-02-03T03:05:52.481Z,29.75
2023-02-03T03:08:30.007Z,29.59
2023-02-03T03:10:58.480Z,29.74
2023-02-03T03:13:33.183Z,29.72
2023-02-03T03:16:07.707Z,30.11
2023-02-03T03:18:41.538Z,30.13
2023-02-03T03:21:13.007Z,29.84
2023-02-03T03:23:46.961Z,29.85
2023-02-03T03:26:28.891Z,29.89
2023-02-03T03:29:02.925Z,30.05
2023-02-03T03:31:33.176Z,30.15
2023-02-03T03:34:01.204Z,29.93
2023-02-03T03:36:55.046Z,30.05
2023-02-03T03:39:44.800Z,30.00
2023-02-03T03:42:12.026Z,30.01
2023-02-03T03:44:43.521Z,29.91
2023-02-03T03:47:23.480Z,30.02
2023-02-03T03:49:51.892Z,29.88
2023-02-03T03:52:22.270Z,30.19
2023-02-03T03:54:51.338Z,30.18
2023-02-03T03:57:22.548Z,29.72
2023-02-03T03:59:50.857Z,30.04
2023-02-03T04:02:20.179Z,30.14
2023-02-03T04:04:48.375Z,30.13
2023-02-03T04:07:16.209Z,29.91
2023-02-03T04:09:43.758Z,29.73
2023-02-03T04:12:21.593Z,29.80
2023-02-03T04:14:53.119Z,29.99
2023-02-03T04:17:28.019Z,29.76
2023-02-03T04:20:01.027Z,29.87
2023-02-03T04:22:32.093Z,29.90
2023-02-03T04:25:03.054Z,30.16
2023-02-03T04:27:32.816Z,30.28
2023-02-03T04:30:03.770Z,30.15
2023-02-03T04:32:39.573Z,29.98
2023-02-03T04:35:10.034Z,29.75
2023-02-03T04:37:37.802Z,29.72
2023-02-03T04:40:08.996Z,29.54
2023-02-03T04:42:41.429Z,29.78
2023-02-03T04:45:10.977Z,29.71
2023-02-03T04:47:39.536Z,30.06
2023-02-03T04:50:09.911Z,29.86
2023-02-03T04:52:37.175Z,29.90
2023-02-03T04:55:04.574Z,30.08
2023-02-03T04:57:32.052Z,30.13
2023-02-03T05:00:01.048Z,29.84
2023-02-03T05:02:28.325Z,29.74
2023-02-03T05:04:57.917Z,29.78
2023-02-03T05:07:25.303Z,30.00
2023-02-03T05:09:52.527Z,30.04
2023-02-03T05:12:19.894Z,30.13
2023-02-03T05:14:47.891Z,29.85
2023-02-03T05:17:17.590Z,30.12
2023-02-03T05:19:48.006Z,29.87
2023-02-03T05:22:15.904Z,29.84
2023-02-03T05:24:44.176Z,29.98
2023-02-03T05:27:11.593Z,29.84
2023-02-03T05:29:38.800Z,30.01
2023-02-03T05:32:09.022Z,29.99
2023-02-03T05:34:36.399Z,29.68
2023-02-03T05:37:04.032Z,29.51
2023-02-03T05:39:31.316Z,29.79
2023-02-03T05:41:59.281Z,29.69
2023-02-03T05:44:28.155Z,29.88
2023-02-03T05:46:56.660Z,29.82
2023-02-03T05:49:24.386Z,29.76
2023-02-03T05:51:54.967Z,29.79
2023-02-03T05:54:22.723Z,29.70
2023-02-03T05:56:51.790Z,29.78
2023-02-03T05:59:19.074Z,29.62
2023-02-03T06:01:46.277Z,29.55
2023-02-03T06:04:15.537Z,29.69
2023-02-03T06:06:42.816Z,29.56
2023-02-03T06:09:10.061Z,29.95
2023-02-03T06:11:40.124Z,29.84
2023-02-03T06:14:07.385Z,29.79
2023-02-03T06:16:34.672Z,29.74
2023-02-03T06:19:04.574Z,29.86
2023-02-03T06:21:32.892Z,29.91
2023-02-03T06:24:01.332Z,29.95
2023-02-03T06:26:29.234Z,30.10
2023-02-03T06:28:58.289Z,29.79
2023-02-03T06:31:26.264Z,29.95
2023-02-03T06:33:53.817Z,30.00
2023-02-03T06:36:21.165Z,29.96
2023-02-03T06:38:48.522Z,29.89
2023-02-03T06:41:15.774Z,30.08
2023-02-03T06:43:48.759Z,29.92
2023-02-03T06:46:16.148Z,30.05
2023-02-03T06:48:43.380Z,30.14
2023-02-03T06:51:10.640Z,30.32
2023-02-03T06:53:37.905Z,30.24
2023-02-03T06:56:07.157Z,29.99
2023-02-03T06:58:34.372Z,30.07
2023-02-03T07:01:01.628Z,29.98
2023-02-03T07:03:29.002Z,29.97
2023-02-03T07:05:58.878Z,29.91
2023-02-03T07:08:26.110Z,29.84
2023-02-03T07:10:54.073Z,29.92
2023-02-03T07:13:23.747Z,30.18
2023-02-03T07:15:51.371Z,29.96
2023-02-03T07:18:45.692Z,29.84
2023-02-03T07:21:08.898Z,30.06
2023-02-03T07:23:45.363Z,30.10
2023-02-03T07:26:14.011Z,30.21
2023-02-03T07:28:41.390Z,29.89
2023-02-03T07:31:10.562Z,30.03
2023-02-03T07:33:38.711Z,29.90
2023-02-03T07:36:06.249Z,29.78
2023-02-03T07:38:33.547Z,29.90
2023-02-03T07:41:04.424Z,29.99
2023-02-03T07:43:37.141Z,29.87
2023-02-03T07:46:04.687Z,29.88
2023-02-03T07:48:31.959Z,29.95
2023-02-03T07:50:59.175Z,29.90
2023-02-03T07:53:38.551Z,29.84
2023-02-03T07:56:06.023Z,29.84
2023-02-03T07:58:33.291Z,29.77
2023-02-03T08:01:09.999Z,29.66
2023-02-03T08:03:37.295Z,29.75
2023-02-03T08:06:07.266Z,29.63
2023-02-03T08:08:34.945Z,29.59
2023-02-03T08:11:13.820Z,29.73
2023-02-03T08:13:41.165Z,29.73
2023-02-03T08:16:08.427Z,29.89
2023-02-03T08:18:35.746Z,30.03
2023-02-03T08:21:07.524Z,29.86
2023-02-03T08:23:34.831Z,29.85
2023-02-03T08:26:02.339Z,29.71
2023-02-03T08:28:32.738Z,29.77
2023-02-03T08:31:00.105Z,29.74
2023-02-03T08:36:13.719Z,29.66
2023-02-03T08:38:42.025Z,29.72
2023-02-03T08:41:14.591Z,29.88
2023-02-03T08:43:43.109Z,29.75
2023-02-03T08:46:11.323Z,29.71
2023-02-03T08:48:40.403Z,29.99
2023-02-03T08:51:15.879Z,29.96
2023-02-03T08:53:43.151Z,30.02
2023-02-03T08:56:12.223Z,30.05
2023-02-03T08:58:42.553Z,29.83
2023-02-03T09:01:10.913Z,29.95
2023-02-03T09:03:43.314Z,29.76
2023-02-03T09:06:13.201Z,29.76
2023-02-03T09:08:40.552Z,30.31
2023-02-03T09:11:11.523Z,29.97
2023-02-03T09:13:39.585Z,30.08
2023-02-03T09:16:14.016Z,29.83
2023-02-03T09:18:41.428Z,29.86
2023-02-03T09:21:13.892Z,30.02
2023-02-03T09:23:50.237Z,30.07
2023-02-03T09:26:17.924Z,30.13
2023-02-03T09:28:45.182Z,30.01
2023-02-03T09:31:19.795Z,29.76
2023-02-03T09:33:47.357Z,29.78
2023-02-03T09:36:14.659Z,29.80
2023-02-03T09:38:42.362Z,29.95
2023-02-03T09:41:12.519Z,29.93
2023-02-03T09:43:43.965Z,29.97
2023-02-03T09:46:13.583Z,29.91
2023-02-03T09:48:43.634Z,30.04
2023-02-03T09:51:42.124Z,30.10
2023-02-03T09:54:19.295Z,30.03
2023-02-03T09:56:53.506Z,30.02
2023-02-03T09:59:21.175Z,30.06
2023-02-03T10:01:54.292Z,29.89
2023-02-03T10:04:41.952Z,30.04
2023-02-03T10:07:25.512Z,29.86
2023-02-03T10:10:08.166Z,29.57
2023-02-03T10:12:46.841Z,30.04
2023-02-03T10:15:29.992Z,30.15
2023-02-03T10:18:00.727Z,30.07
2023-02-03T10:21:12.331Z,30.04
2023-02-03T10:23:41.193Z,30.08
2023-02-03T10:26:12.965Z,30.02
2023-02-03T10:28:42.521Z,29.99
2023-02-03T10:31:19.618Z,30.37
2023-02-03T10:33:47.566Z,30.33
2023-02-03T10:36:22.970Z,29.87
2023-02-03T10:38:53.084Z,29.01
2023-02-03T10:41:24.594Z,29.88
2023-02-03T10:43:53.184Z,29.58
2023-02-03T10:46:28.342Z,29.86
2023-02-03T10:48:56.251Z,29.47
2023-02-03T10:51:28.984Z,29.28
2023-02-03T10:53:56.375Z,29.77
2023-02-03T10:56:29.733Z,29.00
2023-02-03T10:58:58.729Z,29.77
2023-02-03T11:01:40.212Z,29.71
2023-02-03T11:04:21.015Z,30.35
2023-02-03T11:06:56.371Z,29.72
2023-02-03T11:09:30.858Z,29.65
2023-02-03T11:12:11.160Z,29.40
2023-02-03T11:14:39.896Z,30.07
2023-02-03T11:17:09.207Z,30.13
2023-02-03T11:19:38.781Z,30.17
2023-02-03T11:22:06.559Z,29.79
2023-02-03T11:24:38.135Z,30.21
2023-02-03T11:27:15.056Z,30.09
2023-02-03T11:29:44.963Z,30.14
2023-02-03T11:32:28.286Z,30.21
2023-02-03T11:34:58.322Z,30.43
2023-02-03T11:37:39.305Z,29.87
2023-02-03T11:40:07.106Z,29.10
2023-02-03T11:42:36.557Z,28.96
2023-02-03T11:45:22.658Z,28.80
2023-02-03T11:48:01.968Z,29.92
2023-02-03T11:50:35.597Z,29.46
2023-02-03T11:53:05.579Z,29.23
2023-02-03T11:55:53.529Z,29.60
2023-02-03T11:58:44.799Z,30.13
2023-02-03T12:01:30.766Z,30.04
2023-02-03T12:04:08.044Z,30.31
2023-02-03T12:06:53.925Z,30.34
2023-02-03T12:09:40.379Z,30.51
2023-02-03T12:12:17.038Z,30.05
2023-02-03T12:14:47.418Z,29.85
2023-02-03T12:17:33.588Z,30.55
2023-02-03T12:20:07.137Z,30.17
2023-02-03T12:22:45.162Z,30.22
2023-02-03T12:25:31.305Z,30.22
2023-02-03T12:28:04.865Z,30.14
2023-02-03T12:30:53.214Z,30.17
2023-02-03T12:33:27.521Z,30.35
2023-02-03T12:35:57.762Z,30.13
2023-02-03T12:38:37.896Z,29.88
2023-02-03T12:41:08.639Z,30.13
2023-02-03T12:43:40.909Z,30.14
2023-02-03T12:46:18.166Z,30.25
2023-02-03T12:48:49.672Z,30.35
2023-02-03T12:51:43.202Z,29.79
2023-02-03T12:54:19.843Z,29.17
2023-02-03T12:56:49.292Z,28.91
2023-02-03T12:59:23.660Z,30.02
2023-02-03T13:02:13.837Z,30.04
2023-02-03T13:04:49.967Z,30.53
2023-02-03T13:07:20.279Z,30.48
2023-02-03T13:09:56.651Z,30.81
2023-02-03T13:12:24.088Z,31.28
2023-02-03T13:15:00.749Z,30.59
2023-02-03T13:17:30.637Z,30.24
2023-02-03T13:20:05.133Z,31.02
2023-02-03T13:22:32.716Z,30.71
2023-02-03T13:25:08.126Z,30.42
2023-02-03T13:27:41.592Z,30.49
2023-02-03T13:30:08.833Z,30.40
2023-02-03T13:32:59.455Z,30.87
2023-02-03T13:35:47.956Z,30.97
2023-02-03T13:38:17.950Z,30.56
2023-02-03T13:40:57.996Z,30.79
2023-02-03T13:43:38.145Z,30.54
2023-02-03T13:46:19.336Z,29.71
2023-02-03T13:48:47.296Z,30.20
2023-02-03T13:51:16.360Z,30.15
2023-02-03T13:53:45.075Z,30.64
2023-02-03T13:56:18.311Z,31.02
2023-02-03T13:58:58.746Z,30.91
2023-02-03T14:01:33.936Z,30.04
2023-02-03T14:04:06.362Z,30.85
2023-02-03T14:06:36.662Z,30.81
2023-02-03T14:09:19.730Z,31.10
2023-02-03T14:11:47.453Z,30.75
2023-02-03T14:14:17.959Z,30.93
2023-02-03T14:16:54.637Z,30.69
2023-02-03T14:19:23.291Z,30.32
2023-02-03T14:21:59.023Z,30.76
2023-02-03T14:24:33.649Z,30.75
2023-02-03T14:27:03.863Z,30.72
2023-02-03T14:29:39.163Z,30.58
2023-02-03T14:32:10.835Z,30.58
2023-02-03T14:34:38.148Z,30.74
2023-02-03T14:37:11.577Z,30.80
2023-02-03T14:39:41.700Z,30.83
2023-02-03T14:42:24.803Z,30.69
2023-02-03T14:44:52.103Z,30.74
2023-02-03T14:47:28.720Z,31.02
2023-02-03T14:50:16.444Z,30.96
2023-02-03T14:53:01.589Z,30.92
2023-02-03T14:55:37.736Z,30.76
2023-02-03T14:58:07.984Z,30.70
2023-02-03T15:00:35.894Z,30.68
2023-02-03T15:03:10.066Z,30.71
2023-02-03T15:05:38.030Z,30.58
2023-02-03T15:08:06.592Z,30.36
2023-02-03T15:10:39.982Z,30.70
2023-02-03T15:13:23.441Z,30.44
2023-02-03T15:15:51.918Z,30.42
2023-02-03T15:18:27.469Z,30.27
2023-02-03T15:20:57.378Z,30.65
2023-02-03T15:23:28.895Z,30.35
2023-02-03T15:25:58.798Z,30.46
2023-02-03T15:28:26.706Z,30.39
2023-02-03T15:31:26.507Z,30.41
2023-02-03T15:33:55.775Z,30.60
2023-02-03T15:36:26.941Z,30.97
2023-02-03T15:39:08.550Z,30.39
2023-02-03T15:41:36.389Z,30.22
2023-02-03T15:44:08.865Z,30.13
2023-02-03T15:46:40.393Z,30.45
2023-02-03T15:49:19.346Z,30.36
2023-02-03T15:51:49.875Z,30.45
2023-02-03T15:54:30.573Z,30.44
2023-02-03T15:56:58.473Z,30.46
2023-02-03T15:59:37.794Z,30.33
2023-02-03T16:02:29.223Z,30.66
2023-02-03T16:04:56.658Z,30.21
2023-02-03T16:07:30.846Z,30.35
2023-02-03T16:09:59.090Z,30.52
2023-02-03T16:12:30.519Z,30.38
2023-02-03T16:14:58.979Z,30.37
2023-02-03T16:17:35.587Z,30.32
2023-02-03T16:20:14.671Z,30.54
2023-02-03T16:23:00.526Z,30.32
2023-02-03T16:25:30.149Z,30.41
2023-02-03T16:28:30.415Z,30.36
2023-02-03T16:31:22.729Z,30.22
2023-02-03T16:34:10.534Z,30.02
2023-02-03T16:37:00.117Z,30.25
2023-02-03T16:39:48.766Z,30.23
2023-02-03T16:42:39.667Z,30.29
2023-02-03T16:45:34.288Z,30.42
2023-02-03T16:48:21.410Z,30.50
2023-02-03T16:50:58.270Z,30.46
2023-02-03T16:53:28.323Z,30.43
2023-02-03T16:55:57.241Z,30.61
2023-02-03T16:58:24.901Z,30.55
2023-02-03T17:00:53.201Z,30.68
2023-02-03T17:03:21.549Z,30.52
2023-02-03T17:05:49.635Z,30.57
2023-02-03T17:08:18.978Z,30.58
2023-02-03T17:10:46.402Z,30.35
2023-02-03T17:13:14.276Z,30.16
2023-02-03T17:15:46.279Z,30.57
2023-02-03T17:18:15.114Z,30.39
2023-02-03T17:20:45.561Z,30.48
2023-02-03T17:23:13.446Z,30.41
2023-02-03T17:25:43.485Z,30.32
2023-02-03T17:28:14.097Z,30.37
2023-02-03T17:30:41.552Z,30.50
2023-02-03T17:33:12.202Z,30.35
2023-02-03T17:35:43.490Z,30.55
2023-02-03T17:38:11.476Z,30.45
2023-02-03T17:54:28.855Z,30.45
2023-02-03T17:56:56.110Z,30.56
2023-02-03T17:59:23.437Z,30.53
2023-02-03T18:01:50.716Z,30.51
2023-02-03T18:04:21.771Z,30.51
2023-02-03T18:06:56.024Z,30.45
2023-02-03T18:09:23.333Z,30.31
2023-02-03T18:11:50.678Z,30.31
2023-02-03T18:14:18.373Z,30.41
2023-02-03T18:16:45.641Z,30.45
2023-02-03T18:19:14.695Z,30.59
2023-02-03T18:21:45.409Z,30.62
2023-02-03T18:24:18.518Z,30.73
2023-02-03T18:26:51.068Z,30.41
2023-02-03T18:29:18.907Z,30.49
2023-02-03T18:31:46.519Z,30.79
2023-02-03T18:34:15.759Z,30.93
2023-02-03T18:36:43.522Z,30.86
2023-02-03T18:39:12.626Z,30.74
2023-02-03T18:41:42.937Z,30.89
2023-02-03T18:44:10.217Z,30.98
2023-02-03T18:46:40.131Z,31.01
2023-02-03T18:49:09.654Z,30.70
2023-02-03T18:51:41.132Z,30.67
2023-02-03T18:54:08.468Z,30.69
2023-02-03T18:56:35.845Z,31.33
2023-02-03T18:59:12.384Z,31.22
2023-02-03T19:01:41.633Z,31.35
2023-02-03T19:04:09.046Z,31.06
2023-02-03T19:06:36.486Z,30.80
2023-02-03T19:09:06.579Z,30.64
2023-02-03T19:11:35.087Z,30.64
2023-02-03T19:14:02.362Z,30.50
2023-02-03T19:16:30.637Z,30.48
2023-02-03T19:18:57.916Z,30.58
2023-02-03T19:21:25.127Z,30.60
2023-02-03T19:23:55.331Z,30.48
2023-02-03T19:26:22.690Z,30.33
2023-02-03T19:28:56.166Z,30.55
2023-02-03T19:31:25.144Z,30.48
2023-02-03T19:33:52.528Z,30.64
2023-02-03T19:36:19.895Z,30.50
2023-02-03T19:38:50.557Z,30.42
2023-02-03T19:41:17.804Z,30.27
2023-02-03T19:43:47.668Z,30.23
2023-02-03T19:46:15.197Z,30.45
2023-02-03T19:48:42.512Z,30.38
2023-02-03T19:51:12.171Z,30.33
2023-02-03T19:53:40.230Z,30.57
2023-02-03T19:56:07.700Z,30.49
2023-02-03T19:58:35.137Z,30.57
2023-02-03T20:01:02.366Z,30.39
2023-02-03T20:03:29.701Z,30.52
2023-02-03T20:06:01.086Z,30.67
2023-02-03T20:08:28.714Z,30.50
2023-02-03T20:10:57.552Z,30.39
2023-02-03T20:13:24.921Z,30.14
2023-02-03T20:15:52.235Z,30.30
2023-02-03T20:18:19.855Z,30.24
2023-02-03T20:20:54.179Z,30.30
2023-02-03T20:23:22.856Z,30.13
2023-02-03T20:25:53.900Z,30.28
2023-02-03T20:28:23.055Z,30.07
2023-02-03T20:30:51.903Z,30.05
2023-02-03T20:33:19.677Z,30.19
2023-02-03T20:35:49.727Z,30.00
2023-02-03T20:38:17.069Z,30.30
2023-02-03T20:40:44.450Z,30.26
2023-02-03T20:43:19.159Z,30.25
2023-02-03T20:45:48.420Z,30.10
2023-02-03T20:48:16.430Z,30.06
2023-02-03T20:50:47.260Z,30.24
2023-02-03T20:53:18.004Z,30.28
2023-02-03T20:55:45.772Z,30.12
2023-02-03T20:58:20.267Z,30.18
2023-02-03T21:00:49.584Z,30.03
2023-02-03T21:03:45.207Z,30.02
2023-02-03T21:06:16.530Z,30.06
2023-02-03T21:08:44.372Z,30.32
2023-02-03T21:11:18.572Z,30.12
2023-02-03T21:13:46.782Z,30.07
2023-02-03T21:16:30.962Z,30.30
2023-02-03T21:19:06.074Z,30.11
2023-02-03T21:21:38.294Z,30.10
2023-02-03T21:24:26.197Z,30.11
2023-02-03T21:26:54.254Z,29.97
2023-02-03T21:29:27.078Z,30.16
2023-02-03T21:32:04.006Z,29.85
2023-02-03T21:34:34.467Z,30.06
2023-02-03T21:37:08.026Z,30.14
2023-02-03T21:39:36.439Z,30.06
2023-02-03T21:42:40.970Z,30.21
2023-02-03T21:45:11.636Z,30.16
2023-02-03T21:47:39.556Z,30.04
2023-02-03T21:50:25.285Z,29.99
2023-02-03T21:52:52.684Z,30.14
2023-02-03T21:55:21.732Z,30.04
2023-02-03T21:57:49.145Z,30.29
2023-02-03T22:00:48.650Z,29.88
2023-02-03T22:03:43.440Z,30.11
2023-02-03T22:06:18.588Z,30.08
2023-02-03T22:08:47.286Z,29.92
2023-02-03T22:11:15.560Z,30.22
2023-02-03T22:13:43.038Z,29.80
2023-02-03T22:16:10.546Z,29.88
2023-02-03T22:18:39.161Z,29.71
2023-02-03T22:21:08.981Z,29.82
2023-02-03T22:23:36.933Z,29.84
2023-02-03T22:26:04.168Z,30.22
2023-02-03T22:28:36.767Z,30.04
2023-02-03T22:31:05.297Z,30.18
2023-02-03T22:33:32.604Z,29.85
2023-02-03T22:36:07.958Z,30.02
2023-02-03T22:38:35.271Z,29.62
2023-02-03T22:41:02.904Z,29.81
2023-02-03T22:43:31.263Z,29.89
2023-02-03T22:45:59.790Z,29.74
2023-02-03T22:48:27.449Z,29.73
2023-02-03T22:50:55.222Z,29.74
2023-02-03T22:53:22.600Z,29.81
2023-02-03T22:55:49.811Z,30.20
2023-02-03T22:58:17.135Z,30.00
2023-02-03T23:00:44.494Z,29.83
2023-02-03T23:03:11.831Z,29.85
2023-02-03T23:05:41.405Z,29.77
2023-02-03T23:08:12.058Z,30.33
2023-02-03T23:10:45.614Z,30.06
2023-02-03T23:13:12.881Z,30.19
2023-02-03T23:15:40.258Z,30.20
2023-02-03T23:18:08.012Z,30.03
2023-02-03T23:20:35.314Z,30.41
2023-02-03T23:23:05.732Z,30.23
2023-02-03T23:25:36.760Z,30.17
2023-02-03T23:28:04.190Z,30.32
2023-02-03T23:30:31.762Z,30.16
2023-02-03T23:32:59.437Z,30.33
2023-02-03T23:35:45.229Z,30.14
2023-02-03T23:38:13.909Z,29.78
2023-02-03T23:40:41.204Z,29.87
2023-02-03T23:43:08.431Z,30.01
2023-02-03T23:45:35.688Z,30.33
2023-02-03T23:48:03.118Z,30.39
2023-02-03T23:50:31.019Z,30.29
2023-02-03T23:52:58.485Z,30.15
2023-02-03T23:55:25.734Z,30.31
2023-02-03T23:57:53.089Z,30.23
